createdAt,value
2024-03-02T00:02:42.517Z,83.65
2024-03-02T00:06:03.893Z,84.19
2024-03-02T00:09:29.980Z,84.63
2024-03-02T00:12:47.001Z,84.01
2024-03-02T00:16:12.420Z,84.52
2024-03-02T00:19:29.228Z,85.15
2024-03-02T00:22:39.713Z,85.02
2024-03-02T00:26:22.674Z,86.20
2024-03-02T00:29:43.951Z,86.59
2024-03-02T00:32:58.344Z,86.76
2024-03-02T00:36:13.844Z,86.73
2024-03-02T00:39:23.498Z,86.24
2024-03-02T00:42:27.476Z,86.68
2024-03-02T00:45:42.489Z,86.93
2024-03-02T00:49:01.534Z,85.46
2024-03-02T00:52:13.428Z,83.69
2024-03-02T00:55:37.579Z,83.72
2024-03-02T00:59:09.332Z,83.91
2024-03-02T01:02:31.325Z,83.97
2024-03-02T01:05:54.227Z,83.30
2024-03-02T01:09:07.546Z,81.27
2024-03-02T01:12:30.587Z,80.55
2024-03-02T01:15:57.238Z,79.69
2024-03-02T01:19:06.409Z,79.45
2024-03-02T01:22:16.209Z,78.65
2024-03-02T01:25:24.181Z,79.22
2024-03-02T01:28:50.372Z,78.46
2024-03-02T01:32:01.988Z,79.07
2024-03-02T01:35:09.090Z,79.49
2024-03-02T01:38:31.794Z,80.80
2024-03-02T01:41:55.349Z,81.56
2024-03-02T01:45:16.443Z,82.15
2024-03-02T01:48:42.666Z,82.47
2024-03-02T01:52:05.189Z,82.00
2024-03-02T01:55:16.890Z,81.97
2024-03-02T01:58:41.690Z,83.07
2024-03-02T02:02:06.167Z,83.39
2024-03-02T02:05:13.322Z,83.45
2024-03-02T02:08:28.086Z,83.12
2024-03-02T02:11:32.359Z,82.85
2024-03-02T02:14:56.528Z,82.90
2024-03-02T02:18:18.474Z,82.44
2024-03-02T02:21:49.874Z,83.57
2024-03-02T02:24:53.356Z,83.03
2024-03-02T02:27:57.797Z,84.60
2024-03-02T02:31:21.152Z,83.00
2024-03-02T02:34:53.748Z,82.73
2024-03-02T02:38:16.345Z,82.95
2024-03-02T02:41:25.585Z,83.00
2024-03-02T02:44:46.863Z,83.20
2024-03-02T02:48:10.017Z,82.98
2024-03-02T02:51:21.382Z,83.44
2024-03-02T02:54:46.317Z,83.38
2024-03-02T02:58:03.805Z,83.87
2024-03-02T03:01:20.785Z,83.82
2024-03-02T03:04:37.210Z,83.49
2024-03-02T03:07:53.971Z,83.76
2024-03-02T03:10:58.535Z,83.50
2024-03-02T03:14:06.439Z,83.62
2024-03-02T03:17:14.498Z,84.14
2024-03-02T03:20:31.330Z,83.46
2024-03-02T03:23:40.425Z,83.41
2024-03-02T03:26:47.498Z,83.36
2024-03-02T03:30:08.078Z,82.77
2024-03-02T03:33:29.885Z,83.04
2024-03-02T03:36:51.325Z,82.84
2024-03-02T03:40:21.979Z,82.21
2024-03-02T03:43:37.055Z,82.77
2024-03-02T03:47:01.960Z,82.84
2024-03-02T03:50:17.642Z,82.45
2024-03-02T03:53:38.574Z,82.73
2024-03-02T03:57:03.372Z,82.10
2024-03-02T04:00:28.078Z,82.92
2024-03-02T04:03:40.396Z,83.32
2024-03-02T04:07:04.050Z,83.22
2024-03-02T04:10:27.124Z,84.55
2024-03-02T04:13:49.295Z,85.95
2024-03-02T04:16:53.409Z,85.04
2024-03-02T04:19:57.601Z,84.60
2024-03-02T04:23:20.932Z,84.41
2024-03-02T04:26:38.324Z,84.67
2024-03-02T04:29:42.528Z,83.62
2024-03-02T04:33:06.051Z,83.46
2024-03-02T04:36:39.991Z,84.26
2024-03-02T04:40:01.754Z,84.40
2024-03-02T04:43:23.658Z,84.78
2024-03-02T04:46:44.527Z,84.59
2024-03-02T04:49:50.002Z,85.24
2024-03-02T04:52:57.788Z,85.65
2024-03-02T04:56:24.187Z,86.80
2024-03-02T04:59:46.817Z,87.14
2024-03-02T05:03:20.604Z,87.37
2024-03-02T05:06:45.473Z,86.92
2024-03-02T05:10:10.899Z,87.52
2024-03-02T05:13:22.439Z,87.05
2024-03-02T05:16:48.591Z,86.78
2024-03-02T05:20:10.898Z,87.01
2024-03-02T05:23:37.611Z,86.47
2024-03-02T05:26:48.825Z,87.15
2024-03-02T05:30:11.570Z,87.33
2024-03-02T05:33:35.585Z,87.39
2024-03-02T05:36:57.218Z,86.93
2024-03-02T05:40:17.651Z,87.11
2024-03-02T05:43:34.257Z,86.90
2024-03-02T05:46:58.838Z,86.66
2024-03-02T05:50:23.928Z,86.68
2024-03-02T05:53:46.536Z,86.97
2024-03-02T05:57:22.895Z,87.80
2024-03-02T06:00:32.811Z,87.80
2024-03-02T06:03:53.635Z,87.58
2024-03-02T06:07:10.012Z,87.36
2024-03-02T06:10:33.767Z,88.74
2024-03-02T06:13:55.605Z,88.31
2024-03-02T06:17:19.798Z,87.75
2024-03-02T06:20:41.841Z,88.10
2024-03-02T06:24:03.676Z,87.61
2024-03-02T06:27:25.755Z,86.60
2024-03-02T06:30:46.765Z,86.47
2024-03-02T06:34:05.783Z,87.44
2024-03-02T06:37:31.625Z,86.98
2024-03-02T06:40:54.126Z,86.63
2024-03-02T06:44:06.978Z,86.30
2024-03-02T06:47:30.818Z,87.13
2024-03-02T06:50:57.673Z,87.49
2024-03-02T06:54:25.302Z,87.17
2024-03-02T06:57:29.197Z,86.18
2024-03-02T07:00:33.263Z,85.84
2024-03-02T07:03:38.187Z,86.29
2024-03-02T07:06:43.211Z,85.74
2024-03-02T07:09:47.993Z,87.02
2024-03-02T07:12:59.598Z,85.62
2024-03-02T07:16:29.331Z,86.06
2024-03-02T07:19:36.049Z,85.99
2024-03-02T07:22:46.632Z,85.71
2024-03-02T07:28:58.576Z,85.10
2024-03-02T07:32:10.437Z,85.72
2024-03-02T07:35:21.827Z,84.73
2024-03-02T07:38:33.713Z,85.02
2024-03-02T07:41:38.022Z,85.27
2024-03-02T07:44:56.749Z,84.30
2024-03-02T07:48:08.224Z,85.13
2024-03-02T07:51:31.498Z,85.66
2024-03-02T07:54:55.697Z,85.31
2024-03-02T07:58:19.231Z,84.10
2024-03-02T08:01:23.731Z,85.25
2024-03-02T08:04:39.462Z,84.55
2024-03-02T08:08:19.551Z,86.32
2024-03-02T08:11:43.572Z,87.25
2024-03-02T08:15:12.287Z,86.52
2024-03-02T08:18:16.084Z,87.41
2024-03-02T08:21:20.897Z,88.03
2024-03-02T08:24:32.438Z,87.15
2024-03-02T08:27:50.423Z,87.38
2024-03-02T08:31:11.535Z,87.77
2024-03-02T08:34:35.797Z,87.26
2024-03-02T08:37:45.831Z,87.58
2024-03-02T08:40:54.133Z,89.22
2024-03-02T08:44:05.267Z,90.11
2024-03-02T08:47:19.147Z,90.49
2024-03-02T08:50:36.480Z,90.96
2024-03-02T08:53:58.362Z,91.73
2024-03-02T08:57:09.177Z,91.40
2024-03-02T09:00:19.088Z,90.84
2024-03-02T09:03:26.722Z,90.54
2024-03-02T09:06:41.252Z,90.10
2024-03-02T09:10:00.997Z,89.02
2024-03-02T09:13:20.126Z,88.75
2024-03-02T09:16:41.903Z,87.69
2024-03-02T09:20:02.832Z,88.31
2024-03-02T09:23:25.962Z,87.87
2024-03-02T09:26:50.822Z,89.95
2024-03-02T09:30:12.717Z,91.03
2024-03-02T09:33:29.412Z,91.15
2024-03-02T09:36:46.229Z,89.34
2024-03-02T09:40:18.097Z,89.59
2024-03-02T09:43:38.750Z,89.17
2024-03-02T09:46:58.015Z,89.22
2024-03-02T09:50:08.946Z,89.52
2024-03-02T09:53:33.216Z,88.91
2024-03-02T09:56:43.827Z,89.70
2024-03-02T09:59:48.928Z,89.76
2024-03-02T10:03:06.303Z,89.26
2024-03-02T10:06:28.459Z,90.20
2024-03-02T10:09:39.793Z,89.90
2024-03-02T10:12:53.725Z,90.56
2024-03-02T10:16:12.954Z,89.66
2024-03-02T10:19:28.463Z,90.66
2024-03-02T10:22:44.495Z,90.03
2024-03-02T10:25:57.698Z,89.68
2024-03-02T10:29:03.939Z,90.33
2024-03-02T10:32:25.051Z,89.51
2024-03-02T10:35:44.086Z,88.74
2024-03-02T10:39:06.272Z,87.97
2024-03-02T10:42:10.864Z,88.97
2024-03-02T10:45:28.555Z,88.42
2024-03-02T10:48:58.106Z,88.28
2024-03-02T10:52:35.079Z,89.76
2024-03-02T10:55:53.290Z,89.45
2024-03-02T10:59:19.886Z,88.32
2024-03-02T11:02:29.196Z,87.81
2024-03-02T11:06:02.282Z,87.83
2024-03-02T11:09:25.943Z,87.55
2024-03-02T11:13:04.058Z,88.83
2024-03-02T11:16:37.388Z,87.10
2024-03-02T11:19:42.516Z,88.08
2024-03-02T11:22:56.265Z,88.42
2024-03-02T11:26:25.916Z,87.70
2024-03-02T11:29:42.170Z,87.55
2024-03-02T11:33:01.436Z,86.77
2024-03-02T11:36:20.687Z,87.65
2024-03-02T11:39:39.957Z,86.19
2024-03-02T11:43:05.883Z,85.63
2024-03-02T11:46:27.553Z,87.60
2024-03-02T11:49:47.987Z,87.00
2024-03-02T11:52:51.120Z,86.13
2024-03-02T11:55:57.778Z,87.40
2024-03-02T11:59:05.346Z,86.97
2024-03-02T12:02:34.551Z,86.76
2024-03-02T12:05:50.690Z,87.17
2024-03-02T12:09:13.787Z,87.01
2024-03-02T12:12:34.589Z,86.74
2024-03-02T12:15:44.619Z,86.50
2024-03-02T12:19:07.970Z,87.32
2024-03-02T12:22:41.624Z,87.43
2024-03-02T12:26:04.623Z,87.92
2024-03-02T12:29:25.607Z,88.19
2024-03-02T12:32:48.746Z,88.44
2024-03-02T12:36:06.937Z,86.37
2024-03-02T12:39:30.684Z,87.09
2024-03-02T12:42:48.098Z,87.18
2024-03-02T12:46:09.796Z,87.98
2024-03-02T12:49:39.578Z,87.58
2024-03-02T12:53:00.857Z,88.28
2024-03-02T12:56:23.627Z,88.39
2024-03-02T12:59:45.572Z,87.74
2024-03-02T13:03:04.586Z,87.37
2024-03-02T13:06:26.789Z,88.13
2024-03-02T13:09:48.575Z,88.08
2024-03-02T13:12:58.692Z,88.85
2024-03-02T13:16:21.207Z,89.36
2024-03-02T13:20:03.960Z,90.48
2024-03-02T13:23:17.682Z,91.02
2024-03-02T13:26:39.634Z,91.69
2024-03-02T13:29:57.681Z,91.12
2024-03-02T13:33:25.110Z,90.47
2024-03-02T13:36:45.981Z,90.44
2024-03-02T13:40:06.649Z,90.83
2024-03-02T13:43:29.672Z,90.51
2024-03-02T13:46:50.859Z,90.69
2024-03-02T13:50:11.770Z,91.16
2024-03-02T13:53:32.612Z,89.88
2024-03-02T13:56:58.849Z,90.36
2024-03-02T14:00:18.979Z,89.55
2024-03-02T14:03:39.864Z,88.73
2024-03-02T14:06:54.789Z,88.95
2024-03-02T14:10:22.628Z,89.05
2024-03-02T14:13:30.597Z,89.35
2024-03-02T14:16:35.506Z,89.61
2024-03-02T14:19:55.187Z,89.97
2024-03-02T14:23:11.874Z,89.74
2024-03-02T14:26:34.624Z,90.00
2024-03-02T14:29:49.547Z,89.95
2024-03-02T14:33:07.653Z,89.98
2024-03-02T14:36:31.355Z,90.11
2024-03-02T14:39:53.280Z,89.11
2024-03-02T14:43:07.221Z,89.57
2024-03-02T14:46:37.704Z,88.68
2024-03-02T14:49:55.642Z,89.02
2024-03-02T14:53:15.723Z,89.02
2024-03-02T14:56:38.264Z,88.03
2024-03-02T15:00:02.538Z,89.05
2024-03-02T15:03:13.251Z,88.45
2024-03-02T15:06:23.998Z,88.14
2024-03-02T15:09:29.437Z,89.00
2024-03-02T15:12:41.126Z,88.87
2024-03-02T15:15:54.915Z,88.67
2024-03-02T15:19:11.550Z,89.28
2024-03-02T15:22:49.495Z,89.35
2024-03-02T15:26:15.918Z,89.75
2024-03-02T15:29:19.802Z,90.38
2024-03-02T15:32:23.293Z,90.22
2024-03-02T15:35:28.619Z,89.71
2024-03-02T15:38:50.360Z,89.56
2024-03-02T15:42:06.695Z,89.04
2024-03-02T15:45:20.143Z,89.16
2024-03-02T15:48:29.376Z,89.27
2024-03-02T15:51:50.383Z,89.39
2024-03-02T15:55:00.610Z,88.54
2024-03-02T15:58:21.653Z,88.46
2024-03-02T16:01:36.661Z,87.84
2024-03-02T16:04:43.748Z,88.91
2024-03-02T16:07:48.598Z,89.55
2024-03-02T16:10:54.640Z,89.48
2024-03-02T16:14:11.423Z,90.31
2024-03-02T16:17:26.712Z,90.00
2024-03-02T16:20:32.435Z,90.13
2024-03-02T16:23:41.109Z,89.81
2024-03-02T16:26:48.826Z,90.79
2024-03-02T16:30:00.423Z,90.83
2024-03-02T16:33:11.988Z,90.51
2024-03-02T16:36:29.954Z,90.93
2024-03-02T16:39:50.180Z,89.36
2024-03-02T16:43:09.339Z,90.88
2024-03-02T16:46:29.282Z,90.48
2024-03-02T16:49:58.256Z,90.18
2024-03-02T16:53:17.290Z,90.17
2024-03-02T16:56:22.987Z,90.60
2024-03-02T16:59:40.228Z,90.73
2024-03-02T17:02:48.086Z,90.36
2024-03-02T17:05:59.066Z,90.46
2024-03-02T17:09:17.605Z,89.55
2024-03-02T17:12:42.021Z,89.09
2024-03-02T17:15:52.832Z,88.82
2024-03-02T17:19:13.421Z,89.05
2024-03-02T17:22:19.482Z,88.75
2024-03-02T17:25:34.631Z,88.64
2024-03-02T17:28:43.280Z,89.11
2024-03-02T17:31:54.941Z,89.20
2024-03-02T17:35:15.664Z,88.83
2024-03-02T17:38:21.223Z,88.74
2024-03-02T17:41:37.396Z,89.18
2024-03-02T17:44:48.585Z,88.10
2024-03-02T17:47:54.036Z,88.53
2024-03-02T17:51:14.269Z,89.10
2024-03-02T17:54:37.705Z,89.14
2024-03-02T17:57:59.733Z,88.98
2024-03-02T18:01:20.411Z,88.61
2024-03-02T18:04:45.256Z,89.10
2024-03-02T18:07:53.069Z,89.11
2024-03-02T18:11:19.609Z,89.06
2024-03-02T18:14:46.346Z,90.00
2024-03-02T18:18:14.858Z,89.47
2024-03-02T18:21:42.152Z,89.09
2024-03-02T18:24:53.741Z,89.52
2024-03-02T18:28:12.773Z,88.95
2024-03-02T18:31:38.311Z,88.92
2024-03-02T18:35:00.707Z,89.24
2024-03-02T18:38:20.477Z,88.76
2024-03-02T18:41:44.593Z,88.28
2024-03-02T18:44:54.466Z,87.91
2024-03-02T18:48:14.172Z,87.80
2024-03-02T18:51:43.950Z,86.95
2024-03-02T18:55:11.734Z,87.72
2024-03-02T18:58:34.399Z,87.15
2024-03-02T19:01:44.751Z,87.54
2024-03-02T19:05:07.901Z,88.07
2024-03-02T19:08:43.647Z,87.91
2024-03-02T19:12:04.883Z,87.94
2024-03-02T19:15:31.088Z,87.91
2024-03-02T19:18:48.776Z,88.50
2024-03-02T19:22:08.419Z,88.20
2024-03-02T19:25:28.907Z,87.44
2024-03-02T19:28:51.597Z,87.86
2024-03-02T19:32:21.334Z,88.21
2024-03-02T19:35:36.498Z,88.55
2024-03-02T19:38:40.780Z,88.42
2024-03-02T19:42:00.560Z,88.32
2024-03-02T19:45:37.826Z,88.28
2024-03-02T19:49:05.834Z,88.36
2024-03-02T19:52:18.065Z,88.56
2024-03-02T19:55:42.848Z,88.46
2024-03-02T19:59:15.808Z,88.19
2024-03-02T20:02:37.760Z,88.11
2024-03-02T20:05:53.967Z,87.86
2024-03-02T20:09:16.341Z,87.23
2024-03-02T20:12:20.868Z,86.68
2024-03-02T20:15:44.667Z,86.94
2024-03-02T20:19:22.633Z,87.54
2024-03-02T20:22:43.840Z,86.91
2024-03-02T20:26:03.111Z,87.02
2024-03-02T20:29:24.862Z,87.23
2024-03-02T20:32:32.375Z,86.87
2024-03-02T20:35:54.355Z,87.03
2024-03-02T20:39:17.210Z,86.30
2024-03-02T20:42:28.521Z,86.50
2024-03-02T20:45:46.791Z,86.98
2024-03-02T20:49:14.134Z,86.83
2024-03-02T20:52:27.563Z,86.30
2024-03-02T20:55:51.088Z,86.60
2024-03-02T20:59:11.852Z,85.97
2024-03-02T21:02:29.448Z,85.79
2024-03-02T21:05:46.819Z,86.05
2024-03-02T21:09:22.151Z,85.93
2024-03-02T21:12:52.360Z,85.93
2024-03-02T21:16:11.469Z,85.83
2024-03-02T21:19:23.795Z,86.19
2024-03-02T21:22:30.875Z,85.61
2024-03-02T21:25:56.977Z,85.81
2024-03-02T21:29:28.982Z,85.53
2024-03-02T21:32:41.325Z,85.85
2024-03-02T21:35:56.749Z,85.51
2024-03-02T21:39:05.899Z,85.35
2024-03-02T21:42:14.275Z,85.09
2024-03-02T21:45:40.760Z,85.38
2024-03-02T21:49:02.748Z,85.36
2024-03-02T21:52:17.469Z,85.74
2024-03-02T21:55:40.280Z,85.29
2024-03-02T22:02:25.748Z,84.88
2024-03-02T22:05:47.358Z,84.89
2024-03-02T22:08:53.202Z,84.94
2024-03-02T22:12:27.374Z,85.05
2024-03-02T22:15:41.695Z,85.31
2024-03-02T22:19:13.564Z,83.87
2024-03-02T22:22:42.445Z,84.42
2024-03-02T22:25:54.227Z,84.13
2024-03-02T22:28:58.285Z,84.09
2024-03-02T22:32:25.540Z,84.40
2024-03-02T22:35:51.974Z,84.36
2024-03-02T22:39:14.034Z,85.13
2024-03-02T22:42:42.098Z,84.81
2024-03-02T22:45:53.256Z,84.75
2024-03-02T22:48:56.743Z,83.67
2024-03-02T22:52:02.786Z,84.04
2024-03-02T22:55:27.455Z,84.11
2024-03-02T22:58:44.944Z,83.97
2024-03-02T23:02:25.321Z,83.73
2024-03-02T23:05:50.737Z,84.19
2024-03-02T23:08:57.206Z,84.06
2024-03-02T23:12:14.139Z,84.10
2024-03-02T23:15:31.395Z,84.23
2024-03-02T23:18:51.232Z,83.44
2024-03-02T23:21:58.973Z,84.27
2024-03-02T23:25:08.193Z,84.10
2024-03-02T23:28:30.942Z,84.36
2024-03-02T23:31:54.542Z,84.22
2024-03-02T23:35:10.763Z,84.06
2024-03-02T23:38:34.150Z,83.80
2024-03-02T23:41:52.505Z,83.64
2024-03-02T23:45:15.106Z,84.50
2024-03-02T23:48:38.104Z,85.86
2024-03-02T23:51:52.615Z,87.12
2024-03-02T23:55:10.124Z,87.47
2024-03-02T23:58:30.933Z,88.06
